KDMO/DMO METAR and TAF weather

Enter ICAO airport designator
Station Type Date Time Source
KDMO METAR 2020/09/22 07:53 UTC NOAA

KDMO 220753Z AUTO 17006KT 10SM CLR 14/12 A3020 RMK AO2 SLP223 T01440117


Station Type Date Time Source
KDMO Decoded METAR 2020/09/22 07:53 UTC NOAA

SEDALIA MEMORIAL AIRPORT, MO, United States (KDMO) 38-43N 93-10W 274M
Sep 22, 2020 - 03:53 AM EDT / 2020.09.22 0753 UTC
Wind: from the S (170 degrees) at 7 MPH (6 KT):0
Visibility: 10 mile(s):0
Sky conditions: clear
Temperature: 57.9 F (14.4 C)
Dew Point: 53.1 F (11.7 C)
Relative Humidity: 83%
Pressure (altimeter): 30.2 in. Hg (1022 hPa)
ob: KDMO 220753Z AUTO 17006KT 10SM CLR 14/12 A3020 RMK AO2 SLP223 T01440117
cycle: 8

Station Type Date Time Source
KDMO TAF UTC NOAA

Error!

Example: see airport list